Time;durP1;ratioP1;P1;durP2;ratioP2;P2;SDS_P1;SDS_P2;PMS_P1;PMS_P2;Temp;Humidity;BMP_temperature;BMP_pressure;BME280_temperature;BME280_humidity;BME280_pressure;Samples;Min_cycle;Max_cycle;Signal;HPM_P1;HPM_P2
2022/01/24 00:04:02;;;;;;;13.10;5.10;;;;;;;0.43;100.00;101505.32;104491;1280;73033;-71
2022/01/24 00:07:02;;;;;;;10.70;3.80;;;;;;;0.45;100.00;101503.73;104568;1273;59394;-70
2022/01/24 00:11:21;;;;;;;;;;;;;;;;;;;;;
2022/01/24 00:18:35;;;;;;;12.70;3.90;;;;;;;0.44;100.00;101510.38;104293;1281;68561;-70
2022/01/24 00:29:58;;;;;;;14.20;5.40;;;;;;;0.37;100.00;101515.70;104458;1279;59601;-71
2022/01/24 00:32:53;;;;;;;10.40;4.10;;;;;;;0.36;100.00;101505.77;104415;1280;71909;-71
2022/01/24 00:36:05;;;;;;;11.50;4.30;;;;;;;0.35;100.00;101506.64;104341;1280;66950;-73
2022/01/24 00:39:50;;;;;;;15.80;5.10;;;;;;;0.35;100.00;101505.77;104582;1281;71013;-71
2022/01/24 00:42:58;;;;;;;13.30;5.00;;;;;;;0.34;100.00;101502.46;104629;1280;59334;-70
2022/01/24 00:46:36;;;;;;;12.20;4.50;;;;;;;0.31;100.00;101506.86;104555;1281;59436;-70
2022/01/24 00:52:59;;;;;;;9.50;3.40;;;;;;;0.36;100.00;101510.48;104682;1274;71130;-70
2022/01/24 01:02:38;;;;;;;13.30;5.50;;;;;;;0.38;100.00;101523.02;105045;1278;59652;-70
2022/01/24 01:06:46;;;;;;;14.80;5.80;;;;;;;0.40;100.00;101522.99;104627;1281;60556;-72
2022/01/24 01:24:18;;;;;;;12.60;5.30;;;;;;;0.47;100.00;101540.73;104480;1280;59658;-71
2022/01/24 01:27:42;;;;;;;12.80;5.20;;;;;;;0.45;100.00;101539.70;104340;1281;71343;-71
2022/01/24 01:32:12;;;;;;;15.20;5.90;;;;;;;0.47;100.00;101537.23;104758;1281;65931;-71
2022/01/24 01:52:29;;;;;;;18.20;6.60;;;;;;;0.34;100.00;101514.87;105342;1274;66885;-70
2022/01/24 02:01:37;;;;;;;13.90;5.60;;;;;;;0.34;100.00;101497.40;105309;1274;59427;-70
2022/01/24 02:05:24;;;;;;;;;;;;;;;;;;;;;
2022/01/24 02:10:08;;;;;;;15.20;5.60;;;;;;;0.36;100.00;101488.48;105219;1274;70236;-71
2022/01/24 02:14:05;;;;;;;18.50;6.30;;;;;;;0.33;100.00;101486.22;104676;1281;67597;-71
2022/01/24 02:19:09;;;;;;;14.40;5.10;;;;;;;0.36;100.00;101483.06;104741;1281;71576;-73
2022/01/24 02:23:30;;;;;;;;;;;;;;;;;;;;;
2022/01/24 02:27:01;;;;;;;14.60;5.10;;;;;;;0.36;100.00;101467.36;104431;1283;59331;-72
2022/01/24 02:31:21;;;;;;;16.30;6.50;;;;;;;0.32;100.00;101458.14;102479;1284;1003319;-72
2022/01/24 02:34:33;;;;;;;16.40;7.00;;;;;;;0.26;100.00;101463.80;104539;1283;67208;-72
2022/01/24 02:37:50;;;;;;;17.40;7.00;;;;;;;0.23;100.00;101461.56;104497;1282;71864;-70
2022/01/24 02:45:59;;;;;;;18.70;7.60;;;;;;;0.24;100.00;101458.60;104079;1284;59580;-71
2022/01/24 02:54:23;;;;;;;18.00;6.80;;;;;;;0.22;100.00;101457.38;105175;1274;72692;-71
2022/01/24 02:58:34;;;;;;;17.40;6.20;;;;;;;0.22;100.00;101456.52;104366;1281;59450;-71
2022/01/24 03:01:30;;;;;;;15.50;5.80;;;;;;;0.19;100.00;101449.23;104749;1281;59654;-70
2022/01/24 03:04:22;;;;;;;14.50;5.80;;;;;;;0.22;100.00;101450.60;104535;1281;72508;-71
2022/01/24 03:07:16;;;;;;;15.90;6.40;;;;;;;0.21;100.00;101459.50;104263;1281;68552;-70
2022/01/24 03:10:13;;;;;;;13.60;5.60;;;;;;;0.18;100.00;101459.37;104636;1281;73037;-70
2022/01/24 03:13:51;;;;;;;15.70;6.20;;;;;;;0.16;100.00;101455.91;104597;1282;59443;-70
2022/01/24 03:16:48;;;;;;;19.20;6.80;;;;;;;0.13;100.00;101452.10;104663;1281;59503;-71
2022/01/24 03:19:38;;;;;;;17.60;6.70;;;;;;;0.13;100.00;101451.05;104512;1281;72460;-70
2022/01/24 03:22:29;;;;;;;14.90;5.70;;;;;;;0.14;100.00;101451.40;104337;1281;67286;-71
2022/01/24 03:25:29;;;;;;;18.40;6.10;;;;;;;0.14;100.00;101452.96;104709;1281;71263;-70
2022/01/24 03:28:21;;;;;;;16.60;6.20;;;;;;;0.18;100.00;101454.15;104244;1282;59588;-69
2022/01/24 03:31:40;;;;;;;13.80;5.30;;;;;;;0.21;100.00;101448.67;104468;1281;59521;-69
2022/01/24 03:35:09;;;;;;;15.70;6.00;;;;;;;0.24;100.00;101447.95;104724;1273;71203;-70
2022/01/24 03:38:12;;;;;;;18.20;6.80;;;;;;;0.25;100.00;101443.91;103163;1273;1003823;-69
2022/01/24 03:41:06;;;;;;;15.40;6.20;;;;;;;0.28;100.00;101443.70;105014;1274;72646;-69
2022/01/24 03:44:28;;;;;;;15.30;6.10;;;;;;;0.30;100.00;101442.63;104957;1274;59309;-68
2022/01/24 03:48:23;;;;;;;14.00;5.40;;;;;;;0.37;100.00;101445.17;105077;1274;60747;-69
2022/01/24 03:51:29;;;;;;;13.00;4.80;;;;;;;0.40;100.00;101450.17;105008;1274;72606;-70
2022/01/24 03:54:39;;;;;;;12.00;5.10;;;;;;;0.43;100.00;101451.37;105172;1274;67161;-70
2022/01/24 03:57:31;;;;;;;11.00;4.50;;;;;;;0.46;100.00;101452.90;105106;1273;72890;-70
2022/01/24 04:00:26;;;;;;;10.90;4.80;;;;;;;0.49;100.00;101450.23;104969;1274;59404;-70
2022/01/24 04:03:14;;;;;;;11.00;4.60;;;;;;;0.52;100.00;101453.51;104826;1273;60650;-70
2022/01/24 04:06:07;;;;;;;10.90;4.40;;;;;;;0.53;100.00;101451.92;105375;1273;72518;-70
2022/01/24 04:09:04;;;;;;;10.80;4.40;;;;;;;0.54;100.00;101450.16;105241;1274;68314;-71
2022/01/24 04:11:59;;;;;;;9.90;3.80;;;;;;;0.55;100.00;101448.40;105092;1274;72998;-69
2022/01/24 04:18:38;;;;;;;9.40;3.90;;;;;;;0.61;100.00;101450.24;105088;1273;60538;-69
2022/01/24 04:21:33;;;;;;;11.00;4.30;;;;;;;0.62;100.00;101449.35;104997;1274;71438;-69
2022/01/24 04:24:27;;;;;;;8.40;3.50;;;;;;;0.63;100.00;101450.21;105210;1273;68489;-69
2022/01/24 04:27:17;;;;;;;10.50;4.10;;;;;;;0.65;100.00;101448.27;104880;1274;73379;-70
2022/01/24 04:30:39;;;;;;;11.60;4.60;;;;;;;0.65;100.00;101440.75;105021;1273;59262;-71
2022/01/24 04:33:59;;;;;;;9.40;3.90;;;;;;;0.64;100.00;101444.23;105243;1274;59334;-71
2022/01/24 04:36:56;;;;;;;9.60;3.60;;;;;;;0.64;100.00;101435.52;105250;1272;72698;-71
2022/01/24 04:40:16;;;;;;;10.20;4.30;;;;;;;0.64;100.00;101429.92;105281;1274;68371;-70
2022/01/24 04:57:12;;;;;;;10.90;4.30;;;;;;;0.65;100.00;101437.07;104644;1281;72258;-71
2022/01/24 05:00:28;;;;;;;10.30;4.40;;;;;;;0.69;100.00;101438.59;103674;1290;68468;-70
2022/01/24 05:04:04;;;;;;;9.40;4.20;;;;;;;0.74;100.00;101435.04;103617;1294;72992;-70
2022/01/24 05:07:30;;;;;;;9.50;3.80;;;;;;;0.75;100.00;101438.15;103073;1294;59479;-69
2022/01/24 05:10:54;;;;;;;8.50;3.40;;;;;;;0.76;100.00;101437.80;102605;1297;60486;-69
2022/01/24 05:25:31;;;;;;;11.10;4.30;;;;;;;0.77;100.00;101438.48;102878;1297;59393;-72
2022/01/24 05:28:33;;;;;;;11.30;4.90;;;;;;;0.75;100.00;101440.42;103333;1294;60339;-71
2022/01/24 05:31:52;;;;;;;10.50;4.60;;;;;;;0.73;100.00;101443.98;103412;1290;72723;-72
2022/01/24 05:35:06;;;;;;;13.00;4.90;;;;;;;0.73;100.00;101445.88;104113;1287;68613;-70
2022/01/24 05:38:35;;;;;;;10.30;4.50;;;;;;;0.76;100.00;101451.94;104867;1279;71922;-71
2022/01/24 05:42:05;;;;;;;11.50;5.00;;;;;;;0.80;100.00;101452.59;104728;1279;59311;-71
2022/01/24 05:50:29;;;;;;;11.20;5.20;;;;;;;0.88;100.00;101449.67;105697;1273;70384;-73
2022/01/24 05:53:48;;;;;;;12.80;5.20;;;;;;;0.89;100.00;101451.59;105532;1273;66823;-72
2022/01/24 06:02:28;;;;;;;12.30;5.40;;;;;;;0.87;100.00;101453.19;105561;1273;59331;-73
2022/01/24 06:05:45;;;;;;;12.50;6.10;;;;;;;0.83;100.00;101444.66;105577;1273;61100;-72
2022/01/24 06:09:09;;;;;;;11.60;5.00;;;;;;;0.83;100.00;101441.36;105500;1274;72606;-73
2022/01/24 06:12:50;;;;;;;12.10;5.50;;;;;;;0.83;100.00;101443.45;105215;1273;68647;-72
2022/01/24 06:16:23;;;;;;;12.80;5.60;;;;;;;0.80;100.00;101441.56;105082;1273;72945;-72
2022/01/24 06:20:15;;;;;;;11.60;5.30;;;;;;;0.80;100.00;101436.86;105016;1273;59388;-72
2022/01/24 06:24:14;;;;;;;12.00;5.30;;;;;;;0.80;100.00;101435.29;105635;1273;60359;-71
2022/01/24 06:28:07;;;;;;;12.90;5.30;;;;;;;0.80;100.00;101432.85;105385;1273;72419;-71
2022/01/24 06:32:01;;;;;;;14.50;5.80;;;;;;;0.81;100.00;101427.23;104883;1281;68163;-72
2022/01/24 06:35:39;;;;;;;12.90;5.10;;;;;;;0.84;100.00;101433.48;105071;1279;72927;-71
2022/01/24 06:39:34;;;;;;;12.30;5.00;;;;;;;0.88;100.00;101433.77;105071;1279;59447;-70
2022/01/24 06:42:38;;;;;;;13.40;5.40;;;;;;;0.91;100.00;101430.06;104975;1280;59883;-71
2022/01/24 06:46:31;;;;;;;11.80;4.70;;;;;;;0.91;100.00;101426.37;104615;1284;72342;-70
2022/01/24 06:49:31;;;;;;;13.20;5.50;;;;;;;0.91;100.00;101433.71;103882;1290;68546;-71
2022/01/24 06:56:10;;;;;;;11.80;5.00;;;;;;;0.92;100.00;101442.09;103254;1290;1003870;-71
2022/01/24 06:59:24;;;;;;;12.10;5.20;;;;;;;0.92;100.00;101444.55;103374;1290;60514;-71
2022/01/24 07:02:17;;;;;;;15.90;6.50;;;;;;;0.93;100.00;101448.20;103585;1290;72977;-71
2022/01/24 07:05:31;;;;;;;18.00;7.30;;;;;;;0.95;100.00;101452.70;103711;1290;67093;-73
2022/01/24 07:08:50;;;;;;;21.30;8.50;;;;;;;0.95;100.00;101449.02;103735;1286;72815;-73
2022/01/24 07:12:11;;;;;;;20.30;7.10;;;;;;;1.00;100.00;101457.88;103922;1287;59632;-72
2022/01/24 07:15:13;;;;;;;18.10;7.80;;;;;;;1.02;100.00;101458.19;104241;1287;60918;-72
2022/01/24 07:21:56;;;;;;;18.50;7.80;;;;;;;1.05;100.00;101457.98;101607;1287;1003459;-73
2022/01/24 07:25:50;;;;;;;20.90;6.80;;;;;;;1.07;100.00;101459.00;105415;1279;73436;-75
2022/01/24 07:34:39;;;;;;;18.40;7.40;;;;;;;1.13;100.00;101461.67;102679;1299;59620;-73
2022/01/24 07:38:24;;;;;;;16.20;7.70;;;;;;;1.16;100.00;101456.73;102760;1303;71131;-70
2022/01/24 07:41:42;;;;;;;18.70;7.90;;;;;;;1.18;100.00;101449.89;102596;1303;68230;-72
2022/01/24 07:45:06;;;;;;;17.70;7.40;;;;;;;1.20;100.00;101451.27;102891;1302;72038;-72
2022/01/24 07:50:05;;;;;;;17.00;7.10;;;;;;;1.25;100.00;101452.75;103112;1302;59357;-72
2022/01/24 07:53:38;;;;;;;15.80;6.00;;;;;;;1.33;100.00;101443.35;102526;1303;60494;-75
2022/01/24 07:57:02;;;;;;;15.80;6.40;;;;;;;1.38;100.00;101446.77;102888;1303;72400;-71
2022/01/24 08:00:33;;;;;;;18.40;7.10;;;;;;;1.38;100.00;101444.14;102603;1303;68310;-72
2022/01/24 08:03:53;;;;;;;14.30;6.00;;;;;;;1.39;100.00;101437.64;103111;1303;72923;-71
2022/01/24 08:07:13;;;;;;;13.90;6.10;;;;;;;1.45;100.00;101440.35;103940;1294;59331;-70
2022/01/24 08:11:11;;;;;;;;;;;;;;;;;;;;;
2022/01/24 08:14:46;;;;;;;15.70;6.40;;;;;;;1.62;100.00;101444.76;105518;1282;71758;-72
2022/01/24 08:19:13;;;;;;;14.70;6.00;;;;;;;1.70;100.00;101443.04;104794;1282;66983;-73
2022/01/24 08:23:23;;;;;;;;;;;;;;;;;;;;;
2022/01/24 08:26:31;;;;;;;14.10;5.70;;;;;;;1.76;100.00;101443.09;104518;1287;59615;-72
2022/01/24 08:30:53;;;;;;;13.30;5.80;;;;;;;1.78;100.00;101449.52;104574;1281;60654;-73
2022/01/24 08:34:38;;;;;;;14.00;5.50;;;;;;;1.83;100.00;101450.30;105108;1281;74144;-71
2022/01/24 08:38:38;;;;;;;9.50;3.80;;;;;;;1.92;100.00;101447.52;104902;1281;67542;-69
2022/01/24 08:41:39;;;;;;;12.20;5.00;;;;;;;1.95;100.00;101448.51;104340;1282;71729;-70
2022/01/24 08:47:35;;;;;;;12.00;4.90;;;;;;;2.04;100.00;101443.95;104583;1281;59374;-70
2022/01/24 08:50:42;;;;;;;12.60;5.00;;;;;;;2.09;100.00;101446.14;104517;1281;73310;-72
2022/01/24 08:53:34;;;;;;;11.90;5.20;;;;;;;2.09;100.00;101445.07;104139;1281;68591;-71
2022/01/24 08:56:23;;;;;;;10.50;4.70;;;;;;;2.12;100.00;101445.89;104433;1281;72978;-71
2022/01/24 08:59:38;;;;;;;10.10;3.90;;;;;;;2.15;100.00;101445.30;104990;1273;59330;-72
2022/01/24 09:02:54;;;;;;;11.00;4.80;;;;;;;2.19;100.00;101444.17;105993;1273;59336;-74
2022/01/24 09:07:02;;;;;;;12.60;4.90;;;;;;;2.25;100.00;101448.06;105200;1273;71291;-73
2022/01/24 09:10:39;;;;;;;11.00;4.20;;;;;;;2.37;100.00;101444.48;104564;1281;66885;-72
2022/01/24 09:14:01;;;;;;;9.10;4.00;;;;;;;2.38;100.00;101452.00;104245;1282;70627;-73
2022/01/24 09:17:03;;;;;;;10.00;4.10;;;;;;;2.37;100.00;101443.60;104759;1282;59319;-73
2022/01/24 09:19:52;;;;;;;10.50;4.50;;;;;;;2.40;100.00;101449.34;104528;1281;59592;-74
2022/01/24 09:23:14;;;;;;;11.50;4.10;;;;;;;2.46;100.00;101445.36;104203;1281;72435;-73
2022/01/24 09:26:18;;;;;;;11.60;4.30;;;;;;;2.56;100.00;101445.80;104361;1281;67288;-72
2022/01/24 09:29:29;;;;;;;10.30;4.10;;;;;;;2.68;100.00;101452.75;104549;1281;73072;-72
2022/01/24 09:32:32;;;;;;;10.50;4.30;;;;;;;2.73;99.73;101452.11;104190;1281;59360;-74
2022/01/24 09:35:44;;;;;;;11.70;3.80;;;;;;;2.75;99.53;101447.67;104645;1281;60431;-74
2022/01/24 09:38:51;;;;;;;10.30;4.10;;;;;;;2.73;99.05;101444.04;104694;1281;73409;-73
2022/01/24 09:41:52;;;;;;;10.10;3.70;;;;;;;2.69;99.12;101440.80;104318;1282;66557;-74
2022/01/24 09:44:56;;;;;;;10.50;4.10;;;;;;;2.62;98.93;101446.05;104533;1281;73287;-74
2022/01/24 09:47:52;;;;;;;9.80;4.10;;;;;;;2.62;99.54;101443.58;105480;1273;59712;-74
2022/01/24 09:51:02;;;;;;;9.30;4.30;;;;;;;2.64;99.60;101445.45;104973;1273;59573;-74
2022/01/24 09:54:11;;;;;;;11.70;4.50;;;;;;;2.67;99.46;101445.56;105411;1273;72354;-73
2022/01/24 09:57:46;;;;;;;;;;;;;;;;;;;;;
2022/01/24 10:02:03;;;;;;;10.90;4.80;;;;;;;2.68;99.13;101446.06;105639;1273;71581;-74
2022/01/24 10:05:42;;;;;;;12.10;5.10;;;;;;;2.66;99.21;101441.91;105090;1273;59372;-72
2022/01/24 10:09:14;;;;;;;11.80;4.90;;;;;;;2.75;99.26;101435.23;105531;1273;59428;-73
2022/01/24 10:16:55;;;;;;;12.90;5.80;;;;;;;3.05;98.60;101429.97;105140;1273;67264;-73
2022/01/24 10:20:14;;;;;;;13.30;5.50;;;;;;;3.10;98.24;101424.93;104847;1274;70651;-73
2022/01/24 10:23:29;;;;;;;11.50;4.50;;;;;;;3.20;98.27;101420.30;105244;1273;59384;-74
2022/01/24 10:26:33;;;;;;;12.10;4.70;;;;;;;3.36;97.89;101420.39;105061;1273;59675;-73
2022/01/24 10:30:20;;;;;;;11.00;5.00;;;;;;;3.60;97.69;101420.66;104720;1274;72614;-74
2022/01/24 10:34:01;;;;;;;13.00;5.30;;;;;;;3.84;96.32;101413.50;105482;1273;68141;-73
2022/01/24 10:42:52;;;;;;;11.10;4.90;;;;;;;4.32;94.39;101400.69;105532;1273;59189;-73
2022/01/24 10:45:51;;;;;;;12.60;5.30;;;;;;;4.42;93.32;101399.14;105601;1272;59745;-74
2022/01/24 10:54:28;;;;;;;11.70;5.20;;;;;;;4.42;92.88;101395.64;104884;1281;66597;-72
2022/01/24 10:57:24;;;;;;;14.20;6.00;;;;;;;4.37;92.80;101393.51;104307;1281;71576;-74
2022/01/24 11:00:40;;;;;;;14.10;6.20;;;;;;;4.37;93.30;101385.27;104585;1281;59542;-74
2022/01/24 11:04:22;;;;;;;12.50;5.50;;;;;;;4.44;92.96;101377.48;104970;1281;59474;-75
2022/01/24 11:08:35;;;;;;;13.70;5.40;;;;;;;4.57;92.82;101378.47;104670;1281;73867;-73
2022/01/24 11:11:23;;;;;;;11.60;5.50;;;;;;;4.58;92.13;101378.44;104928;1279;68252;-74
2022/01/24 11:14:37;;;;;;;14.10;6.40;;;;;;;4.57;92.16;101378.11;104888;1279;72969;-74
2022/01/24 11:18:33;;;;;;;13.50;6.20;;;;;;;4.54;92.06;101374.69;104916;1279;59378;-73
2022/01/24 11:21:12;;;;;;;12.40;6.30;;;;;;;4.41;92.08;101370.89;105182;1279;59343;-74
2022/01/24 11:24:25;;;;;;;13.50;5.90;;;;;;;4.31;92.62;101366.83;105074;1281;72821;-73
2022/01/24 11:27:50;;;;;;;12.60;5.90;;;;;;;4.23;92.82;101361.25;104779;1281;68744;-74
2022/01/24 11:31:35;;;;;;;11.90;5.20;;;;;;;4.24;92.96;101364.39;105043;1274;73509;-74
2022/01/24 11:34:39;;;;;;;10.70;5.30;;;;;;;4.22;92.96;101361.45;105316;1274;59277;-72
2022/01/24 11:37:58;;;;;;;12.10;5.90;;;;;;;4.10;93.31;101359.90;105435;1274;59435;-72
2022/01/24 11:41:34;;;;;;;11.20;5.60;;;;;;;3.98;93.99;101361.30;105227;1273;72137;-72
2022/01/24 11:45:08;;;;;;;;;;;;;;;;;;;;;
2022/01/24 11:49:04;;;;;;;11.50;5.60;;;;;;;4.29;93.97;101348.23;103913;1272;1003858;-73
2022/01/24 11:52:43;;;;;;;12.20;5.60;;;;;;;4.48;92.55;101351.18;105313;1273;59166;-73
2022/01/24 11:56:04;;;;;;;11.30;5.40;;;;;;;4.48;92.33;101354.33;105418;1273;60506;-73
2022/01/24 11:59:42;;;;;;;13.40;5.80;;;;;;;4.48;92.11;101346.61;105337;1273;72355;-74
2022/01/24 12:03:35;;;;;;;13.20;6.40;;;;;;;4.52;93.79;101345.59;105428;1273;68058;-73
2022/01/24 12:07:22;;;;;;;12.30;5.30;;;;;;;4.61;91.74;101346.34;105583;1273;72961;-73
2022/01/24 12:10:37;;;;;;;11.40;5.40;;;;;;;4.57;91.93;101343.14;105336;1273;59297;-74
2022/01/24 12:14:58;;;;;;;10.00;5.10;;;;;;;4.60;91.92;101347.97;105304;1273;60591;-74
2022/01/24 12:19:01;;;;;;;9.30;4.10;;;;;;;4.55;91.98;101344.42;105533;1273;72579;-73
2022/01/24 12:22:49;;;;;;;10.20;4.20;;;;;;;4.51;91.86;101328.73;105033;1273;67983;-73
2022/01/24 12:26:38;;;;;;;;;;;;;;;;;;;;;
2022/01/24 12:29:56;;;;;;;9.60;4.20;;;;;;;4.29;91.96;101332.59;105298;1273;59357;-73
2022/01/24 12:33:20;;;;;;;;;;;;;;;;;;;;;
2022/01/24 12:37:00;;;;;;;9.60;4.10;;;;;;;4.01;93.95;101323.80;105167;1273;71217;-74
2022/01/24 12:40:59;;;;;;;9.50;4.40;;;;;;;3.96;95.05;101315.89;104673;1282;68288;-72
2022/01/24 12:48:14;;;;;;;7.50;3.00;;;;;;;3.90;95.62;101306.55;104662;1279;59452;-72
2022/01/24 12:51:12;;;;;;;8.50;3.70;;;;;;;3.90;95.75;101299.20;104563;1279;60718;-74
2022/01/24 12:54:43;;;;;;;8.30;3.30;;;;;;;3.88;96.05;101298.73;104796;1279;72295;-74
2022/01/24 12:58:04;;;;;;;8.00;3.80;;;;;;;3.89;96.23;101299.42;104330;1285;68196;-72
2022/01/24 13:01:43;;;;;;;10.30;4.50;;;;;;;3.85;96.11;101290.93;104027;1285;73003;-73
2022/01/24 13:04:56;;;;;;;9.40;4.40;;;;;;;3.80;96.33;101298.60;104381;1285;59473;-72
2022/01/24 13:09:33;;;;;;;9.20;4.30;;;;;;;3.78;96.63;101297.81;104580;1285;60377;-73
2022/01/24 13:13:31;;;;;;;10.60;4.50;;;;;;;3.73;97.12;101297.95;103307;1285;1003912;-74
2022/01/24 13:28:19;;;;;;;11.00;5.20;;;;;;;3.58;97.94;101287.14;104891;1281;60510;-72
2022/01/24 13:31:21;;;;;;;10.40;4.80;;;;;;;3.47;98.53;101285.17;104473;1281;72584;-72
2022/01/24 13:35:35;;;;;;;8.50;4.00;;;;;;;3.36;98.89;101280.21;105160;1274;68750;-71
2022/01/24 13:39:24;;;;;;;10.70;4.60;;;;;;;3.29;99.52;101279.55;105381;1274;71484;-73
2022/01/24 13:42:20;;;;;;;11.80;4.90;;;;;;;3.27;99.99;101284.35;105406;1274;59491;-72
2022/01/24 13:45:51;;;;;;;10.20;4.80;;;;;;;3.24;100.00;101280.76;103621;1274;1003878;-72
2022/01/24 13:50:20;;;;;;;;;;;;;;;;;;;;;
2022/01/24 13:54:26;;;;;;;11.50;4.80;;;;;;;3.19;100.00;101285.27;105574;1272;68898;-73
2022/01/24 13:58:06;;;;;;;11.10;5.00;;;;;;;3.16;100.00;101286.42;105399;1274;71960;-72
2022/01/24 14:01:48;;;;;;;13.00;6.50;;;;;;;3.13;100.00;101288.05;105434;1273;59186;-73
2022/01/24 14:05:30;;;;;;;10.40;5.00;;;;;;;3.12;100.00;101291.40;105284;1274;60524;-72
2022/01/24 14:09:52;;;;;;;12.80;6.60;;;;;;;3.09;100.00;101284.65;105723;1271;72576;-73
2022/01/24 14:13:20;;;;;;;14.00;7.90;;;;;;;3.07;100.00;101283.48;105984;1273;69458;-73
2022/01/24 14:17:09;;;;;;;13.70;6.90;;;;;;;3.07;100.00;101287.70;105174;1274;71663;-73
2022/01/24 14:20:08;;;;;;;13.70;6.90;;;;;;;3.09;100.00;101287.29;105431;1273;59316;-72
2022/01/24 14:23:03;;;;;;;14.80;7.80;;;;;;;3.09;100.00;101285.34;105571;1273;61010;-72
2022/01/24 14:26:28;;;;;;;13.50;7.10;;;;;;;3.10;100.00;101283.23;105133;1273;71786;-72
2022/01/24 14:29:38;;;;;;;;;;;;;;;;;;;;;
2022/01/24 14:33:23;;;;;;;13.90;7.10;;;;;;;3.11;100.00;101290.75;103877;1273;1003379;-70
2022/01/24 14:36:27;;;;;;;13.50;6.80;;;;;;;3.12;100.00;101286.52;105995;1273;59176;-73
2022/01/24 14:39:48;;;;;;;14.90;7.00;;;;;;;3.14;100.00;101287.68;105628;1273;60370;-73
2022/01/24 14:42:47;;;;;;;17.20;8.40;;;;;;;3.17;100.00;101290.75;104964;1273;71191;-72
2022/01/24 14:45:51;;;;;;;17.90;7.30;;;;;;;3.18;100.00;101284.92;105780;1274;68058;-72
2022/01/24 14:48:54;;;;;;;13.60;5.80;;;;;;;3.21;100.00;101285.39;105147;1274;73113;-72
2022/01/24 14:52:29;;;;;;;12.50;5.00;;;;;;;3.21;100.00;101280.64;105349;1273;59361;-73
2022/01/24 14:56:26;;;;;;;11.70;4.70;;;;;;;3.23;100.00;101283.04;105199;1274;59903;-74
2022/01/24 14:59:46;;;;;;;12.90;4.60;;;;;;;3.25;100.00;101287.20;105549;1274;72652;-74
2022/01/24 15:06:20;;;;;;;12.90;5.50;;;;;;;3.29;100.00;101282.71;105159;1274;72917;-73
2022/01/24 15:09:23;;;;;;;8.50;4.10;;;;;;;3.29;100.00;101281.14;105170;1273;59963;-74
2022/01/24 15:12:10;;;;;;;8.80;3.50;;;;;;;3.30;100.00;101280.58;105290;1273;59326;-73
2022/01/24 15:15:37;;;;;;;12.20;4.70;;;;;;;3.29;100.00;101284.83;105271;1273;72657;-74
2022/01/24 15:25:40;;;;;;;14.00;4.80;;;;;;;3.28;100.00;101274.49;104662;1278;61138;-73
2022/01/24 15:29:08;;;;;;;15.40;5.00;;;;;;;3.27;100.00;101270.30;105069;1281;60691;-74
2022/01/24 15:32:25;;;;;;;11.60;3.80;;;;;;;3.26;100.00;101278.06;104769;1281;71641;-73
2022/01/24 15:50:44;;;;;;;12.10;4.10;;;;;;;3.20;100.00;101273.33;104204;1286;60452;-73
2022/01/24 15:55:07;;;;;;;8.80;3.30;;;;;;;3.20;100.00;101272.59;104173;1283;73449;-74
2022/01/24 16:04:49;;;;;;;9.50;3.60;;;;;;;3.21;100.00;101270.64;104339;1284;74286;-73
2022/01/24 16:13:41;;;;;;;;;;;;;;;;;;;;;
2022/01/24 16:16:51;;;;;;;12.20;3.90;;;;;;;3.13;99.78;101268.77;103369;1293;73202;-73
2022/01/24 16:25:22;;;;;;;11.50;3.70;;;;;;;3.15;100.00;101272.55;102996;1299;71749;-72
2022/01/24 16:28:45;;;;;;;12.10;4.70;;;;;;;3.16;100.00;101269.02;102780;1299;59698;-73
2022/01/24 16:32:37;;;;;;;10.50;4.10;;;;;;;3.17;99.99;101270.05;103253;1294;60763;-72
2022/01/24 16:36:31;;;;;;;13.30;5.70;;;;;;;3.15;99.76;101262.58;103127;1294;72034;-72
2022/01/24 16:44:41;;;;;;;13.10;4.40;;;;;;;3.09;99.96;101258.16;104255;1281;73535;-73
2022/01/24 16:48:54;;;;;;;13.50;5.00;;;;;;;3.06;99.99;101251.41;104653;1282;59617;-72
2022/01/24 16:51:55;;;;;;;15.30;5.60;;;;;;;3.02;99.98;101247.65;104486;1281;60700;-72
2022/01/24 16:54:48;;;;;;;11.60;4.60;;;;;;;3.04;99.92;101250.95;104347;1282;72068;-72
2022/01/24 16:57:48;;;;;;;10.80;4.40;;;;;;;3.02;99.81;101245.91;104714;1281;66690;-71
2022/01/24 17:00:55;;;;;;;9.10;4.00;;;;;;;3.03;99.73;101244.83;104291;1274;70488;-72
2022/01/24 17:04:18;;;;;;;9.50;4.00;;;;;;;3.02;99.28;101236.80;105202;1274;59739;-73
2022/01/24 17:07:34;;;;;;;12.90;3.90;;;;;;;3.01;99.16;101242.77;104998;1273;60519;-71
2022/01/24 17:10:51;;;;;;;13.30;4.40;;;;;;;3.00;98.93;101250.35;107226;1273;74543;-72
2022/01/24 17:14:31;;;;;;;13.80;5.10;;;;;;;2.98;98.95;101248.48;107941;1272;66720;-75
2022/01/24 17:17:33;;;;;;;10.50;3.90;;;;;;;2.98;99.06;101245.52;105373;1274;71751;-73
2022/01/24 17:20:52;;;;;;;10.80;3.80;;;;;;;2.98;99.03;101241.65;105930;1279;59752;-72
2022/01/24 17:25:02;;;;;;;10.90;4.90;;;;;;;2.99;99.19;101244.41;105233;1279;59826;-72
2022/01/24 17:28:52;;;;;;;10.70;3.80;;;;;;;2.99;99.17;101240.55;105185;1281;72065;-73
2022/01/24 17:31:56;;;;;;;12.60;4.20;;;;;;;2.99;99.02;101245.48;104785;1279;67141;-73
2022/01/24 17:35:58;;;;;;;10.10;3.90;;;;;;;2.99;99.01;101247.93;105003;1278;71822;-73
2022/01/24 17:39:33;;;;;;;13.80;5.00;;;;;;;2.99;99.29;101247.58;105231;1278;59865;-73
2022/01/24 17:43:01;;;;;;;13.10;4.20;;;;;;;2.99;99.55;101245.83;105005;1279;60647;-72
2022/01/24 17:48:11;;;;;;;9.90;3.80;;;;;;;2.98;99.65;101251.66;104695;1281;72064;-73
2022/01/24 17:52:33;;;;;;;10.30;4.20;;;;;;;2.93;99.85;101244.05;102935;1294;68170;-72
2022/01/24 17:55:53;;;;;;;11.10;4.30;;;;;;;2.92;99.97;101241.13;102923;1294;72141;-73
2022/01/24 17:58:50;;;;;;;11.40;4.60;;;;;;;2.90;99.99;101239.73;102837;1294;59859;-73
2022/01/24 18:01:41;;;;;;;12.60;5.50;;;;;;;2.89;100.00;101237.67;102890;1294;60748;-72
2022/01/24 18:05:08;;;;;;;9.70;3.80;;;;;;;2.87;100.00;101237.36;102962;1293;72333;-72
2022/01/24 18:08:15;;;;;;;11.40;4.40;;;;;;;2.87;99.91;101231.45;103155;1295;67922;-72
2022/01/24 18:11:02;;;;;;;9.50;4.00;;;;;;;2.86;99.94;101234.58;103283;1294;73398;-72
2022/01/24 18:13:50;;;;;;;11.90;4.70;;;;;;;2.89;100.00;101232.75;103250;1294;59806;-72
2022/01/24 18:16:45;;;;;;;13.40;4.70;;;;;;;2.89;99.69;101229.61;103249;1291;59754;-72
2022/01/24 18:20:16;;;;;;;11.70;4.60;;;;;;;2.87;99.54;101224.04;103696;1285;73781;-74
2022/01/24 18:23:43;;;;;;;10.00;3.80;;;;;;;2.87;99.72;101217.92;104372;1282;68632;-72
2022/01/24 18:26:31;;;;;;;13.40;4.50;;;;;;;2.85;99.70;101217.11;104438;1281;72821;-73
2022/01/24 18:29:18;;;;;;;9.40;3.90;;;;;;;2.85;99.70;101224.98;105051;1275;59779;-73
2022/01/24 18:32:06;;;;;;;13.80;4.00;;;;;;;2.83;99.81;101219.25;104718;1274;61108;-73
2022/01/24 18:34:53;;;;;;;11.10;3.50;;;;;;;2.82;99.45;101219.12;104709;1274;72022;-72
2022/01/24 18:37:41;;;;;;;11.20;3.70;;;;;;;2.81;99.32;101223.52;104639;1274;66584;-73
2022/01/24 18:40:29;;;;;;;13.90;4.70;;;;;;;2.79;98.58;101217.63;104661;1274;73019;-71
2022/01/24 18:43:18;;;;;;;17.60;5.80;;;;;;;2.80;98.61;101218.13;105024;1274;59682;-73
2022/01/24 18:46:07;;;;;;;14.80;6.30;;;;;;;2.79;98.72;101213.40;105282;1273;59709;-72
2022/01/24 18:48:55;;;;;;;17.90;6.40;;;;;;;2.79;98.52;101209.37;104922;1274;73217;-72
2022/01/24 18:51:57;;;;;;;14.90;5.50;;;;;;;2.80;98.32;101212.87;104813;1274;66920;-72
2022/01/24 18:54:44;;;;;;;16.70;7.30;;;;;;;2.79;98.38;101216.36;104998;1275;73055;-73
2022/01/24 18:57:32;;;;;;;14.50;5.90;;;;;;;2.80;98.34;101219.17;105257;1274;59748;-72
2022/01/24 19:00:27;;;;;;;14.30;5.20;;;;;;;2.80;98.49;101221.46;104924;1274;59655;-71
2022/01/24 19:03:15;;;;;;;13.50;5.30;;;;;;;2.80;98.08;101211.27;104867;1275;70956;-72
2022/01/24 19:06:03;;;;;;;11.10;4.70;;;;;;;2.82;98.34;101206.15;104790;1274;66796;-71
2022/01/24 19:08:51;;;;;;;13.20;5.20;;;;;;;2.81;98.10;101201.60;104914;1271;73416;-72
2022/01/24 19:11:42;;;;;;;16.30;5.60;;;;;;;2.80;98.22;101199.70;105006;1274;59778;-72
2022/01/24 19:14:30;;;;;;;15.60;5.60;;;;;;;2.79;98.48;101199.04;105154;1275;60510;-73